Faro Airport
CZFA : rendu visible

Aérodrome :











RETROUVEZ-NOUS SUR...

 
LOGIN :

S'inscrire | Disclaimer

   EN    FR    IT 

 









Légende :    VFR   VFR Marginal   IFR   IFR Intensif   IFR Très Intensif
Visi : 
Plafond : 
>= 8 km
>= 3000ft
5 à 8 km
1000 à 3000 ft
1500m à 5 km
500 à 1000 ft
800 à 1500m
200 à 500 ft
< 800m
< 200 ft
Symboles :   Orages  Brouillard  Fortes neiges  Fortes précipitations  Vent > 20 kt






- Altitude de l'aérodrome : 2351 ft
- Code IATA : ZFA


CZFA - Faro

DERNIER METAR :
  • 111900Z 07003KT 040V150 30SM BKN055 M28/M31 A3018 RMK SC7 SLP319

METARs EXPIRÉS :
  • 111800Z 11003KT 30SM SCT053 M30/M33 A3019 RMK SC4 SLP323
  • 111700Z 15002KT 30SM FEW055 M32/M35 A3020 RMK SC1 SC TR SLP329

TAF TAF CZFA
Valide du 11 à 18h jusqu'au 11 à 23h UTC


111738Z 1118/1123 VRB03KT P6SM BKN060
TEMPO 1118/1123 6SM -SN BKN040 RMK NXT FCST WILL BE ISSUED AT 121645Z



MET'MAP, la Météo Aéronautique d'un coup d'oeil ! - Copyright ORBIFLY Décembre 2007 - Disclaimer

ORBIFLY MET'MAP TEAM :

Programmation & Développement : Alexandra Zaïnal
Conception & Développement : Baudouin d'Aumeries
Co-Programmation & Développement : Marc-Olivier Méhu
Soutien technique & logistique : Manuel Goepfert

Contact : metmap@orbifly.com




SOURCES & CREDITS :

   NOAA       Earth
Advisory